createdAt,value
2022-11-15T00:00:29.141Z,29.07
2022-11-15T00:02:55.984Z,34.53
2022-11-15T00:05:22.554Z,35.33
2022-11-15T00:07:55.770Z,33.20
2022-11-15T00:10:22.616Z,32.23
2022-11-15T00:12:49.038Z,29.43
2022-11-15T00:15:15.512Z,33.27
2022-11-15T00:17:41.909Z,28.10
2022-11-15T00:20:08.918Z,30.97
2022-11-15T00:22:35.329Z,31.17
2022-11-15T00:25:01.708Z,28.63
2022-11-15T00:27:28.392Z,31.10
2022-11-15T00:29:54.808Z,32.20
2022-11-15T00:32:21.387Z,29.77
2022-11-15T00:34:47.782Z,35.10
2022-11-15T00:37:14.202Z,31.20
2022-11-15T00:39:40.587Z,32.00
2022-11-15T00:42:06.966Z,31.80
2022-11-15T00:44:33.364Z,28.33
2022-11-15T00:46:59.798Z,30.90
2022-11-15T00:49:26.173Z,31.57
2022-11-15T00:51:52.609Z,32.93
2022-11-15T00:54:19.007Z,34.40
2022-11-15T00:56:45.402Z,32.93
2022-11-15T00:59:11.791Z,31.13
2022-11-15T01:01:38.222Z,33.37
2022-11-15T01:04:04.763Z,28.60
2022-11-15T01:06:31.192Z,32.23
2022-11-15T01:08:57.569Z,28.17
2022-11-15T01:11:23.973Z,33.53
2022-11-15T01:13:50.371Z,32.20
2022-11-15T01:16:19.236Z,32.33
2022-11-15T01:18:46.600Z,31.90
2022-11-15T01:21:15.890Z,31.13
2022-11-15T01:23:42.461Z,32.83
2022-11-15T01:26:12.163Z,28.97
2022-11-15T01:28:39.527Z,31.20
2022-11-15T01:31:13.113Z,35.70
2022-11-15T01:33:39.607Z,30.70
2022-11-15T01:36:07.361Z,32.13
2022-11-15T01:38:34.160Z,33.73
2022-11-15T01:41:00.780Z,31.93
2022-11-15T01:43:32.838Z,32.37
2022-11-15T01:46:03.281Z,31.87
2022-11-15T01:48:33.575Z,30.47
2022-11-15T01:51:02.258Z,28.30
2022-11-15T01:53:31.235Z,29.67
2022-11-15T01:55:58.628Z,38.27
2022-11-15T01:58:25.222Z,31.87
2022-11-15T02:00:52.755Z,35.07
2022-11-15T02:03:19.460Z,33.23
2022-11-15T02:05:45.941Z,32.57
2022-11-15T02:08:20.718Z,32.33
2022-11-15T02:10:48.000Z,33.80
2022-11-15T02:13:16.189Z,31.40
2022-11-15T02:15:59.043Z,35.63
2022-11-15T02:18:33.731Z,32.27
2022-11-15T02:21:08.183Z,30.67
2022-11-15T02:23:54.205Z,31.07
2022-11-15T02:26:45.134Z,29.63
2022-11-15T02:29:15.627Z,29.10
2022-11-15T02:31:58.444Z,29.83
2022-11-15T02:34:34.133Z,28.90
2022-11-15T02:37:20.752Z,26.40
2022-11-15T02:39:52.865Z,27.87
2022-11-15T02:42:42.960Z,27.30
2022-11-15T02:45:11.248Z,26.37
2022-11-15T02:47:44.475Z,27.53
2022-11-15T02:50:17.572Z,27.13
2022-11-15T02:52:47.665Z,29.53
2022-11-15T02:55:35.973Z,25.40
2022-11-15T02:58:27.082Z,25.93
2022-11-15T03:01:14.827Z,26.60
2022-11-15T03:03:47.471Z,27.17
2022-11-15T03:06:39.961Z,26.07
2022-11-15T03:09:12.260Z,24.07
2022-11-15T03:11:42.736Z,25.73
2022-11-15T03:14:19.627Z,26.13
2022-11-15T03:16:52.446Z,24.30
2022-11-15T03:19:46.704Z,29.23
2022-11-15T03:22:19.058Z,27.43
2022-11-15T03:24:48.449Z,30.73
2022-11-15T03:27:18.973Z,27.33
2022-11-15T03:29:48.364Z,32.10
2022-11-15T03:32:20.497Z,27.40
2022-11-15T03:35:15.740Z,25.40
2022-11-15T03:37:55.673Z,28.43
2022-11-15T03:40:30.707Z,26.40
2022-11-15T03:43:05.715Z,26.27
2022-11-15T03:45:45.938Z,29.80
2022-11-15T03:48:15.976Z,22.27
2022-11-15T03:50:43.665Z,22.13
2022-11-15T03:53:10.441Z,22.53
2022-11-15T03:55:36.826Z,27.93
2022-11-15T03:58:03.270Z,25.40
2022-11-15T04:00:30.061Z,22.83
2022-11-15T04:02:56.822Z,30.33
2022-11-15T04:05:23.282Z,25.77
2022-11-15T04:07:49.712Z,25.23
2022-11-15T04:10:16.614Z,24.53
2022-11-15T04:12:44.883Z,24.77
2022-11-15T04:15:19.958Z,24.97
2022-11-15T04:17:57.215Z,29.00
2022-11-15T04:20:47.274Z,22.00
2022-11-15T04:23:40.055Z,26.13
2022-11-15T04:26:12.286Z,21.57
2022-11-15T04:28:57.811Z,24.60
2022-11-15T04:31:24.321Z,22.70
2022-11-15T04:33:50.866Z,23.17
2022-11-15T04:36:35.860Z,22.53
2022-11-15T04:39:02.305Z,23.50
2022-11-15T04:41:30.027Z,25.50
2022-11-15T04:43:56.494Z,19.57
2022-11-15T04:46:24.655Z,20.27
2022-11-15T04:48:56.944Z,24.80
2022-11-15T04:51:24.910Z,23.80
2022-11-15T04:53:51.337Z,22.77
2022-11-15T04:56:17.733Z,20.20
2022-11-15T04:58:44.202Z,22.50
2022-11-15T05:01:15.695Z,23.47
2022-11-15T05:04:01.280Z,20.43
2022-11-15T05:06:27.743Z,21.63
2022-11-15T05:08:54.477Z,21.93
2022-11-15T05:11:21.526Z,22.77
2022-11-15T05:13:47.956Z,22.40
2022-11-15T05:16:14.417Z,21.40
2022-11-15T05:18:41.655Z,21.77
2022-11-15T05:21:10.626Z,22.47
2022-11-15T05:23:37.170Z,21.40
2022-11-15T05:26:09.015Z,21.97
2022-11-15T05:28:37.302Z,24.17
2022-11-15T05:31:04.846Z,20.27
2022-11-15T05:33:32.078Z,21.17
2022-11-15T05:36:06.391Z,20.77
2022-11-15T05:38:32.796Z,24.07
2022-11-15T05:41:00.904Z,20.67
2022-11-15T05:43:28.268Z,26.20
2022-11-15T05:45:54.751Z,22.07
2022-11-15T05:48:21.186Z,21.73
2022-11-15T05:50:48.565Z,24.93
2022-11-15T05:53:17.189Z,19.77
2022-11-15T05:55:43.688Z,18.60
2022-11-15T05:58:10.391Z,19.60
2022-11-15T06:00:36.843Z,19.67
2022-11-15T06:03:03.326Z,20.40
2022-11-15T06:05:29.747Z,20.63
2022-11-15T06:07:59.949Z,21.00
2022-11-15T06:10:26.555Z,19.50
2022-11-15T06:13:03.065Z,19.23
2022-11-15T06:15:29.502Z,19.30
2022-11-15T06:18:00.048Z,18.03
2022-11-15T06:20:27.948Z,19.67
2022-11-15T06:23:02.427Z,14.87
2022-11-15T06:25:29.619Z,17.80
2022-11-15T06:27:57.654Z,18.67
2022-11-15T06:30:24.761Z,20.67
2022-11-15T06:32:51.174Z,17.47
2022-11-15T06:35:17.912Z,22.47
2022-11-15T06:37:44.395Z,20.30
2022-11-15T06:40:11.392Z,23.57
2022-11-15T06:42:37.785Z,23.27
2022-11-15T06:45:04.583Z,21.20
2022-11-15T06:47:31.075Z,18.03
2022-11-15T06:49:57.523Z,20.33
2022-11-15T06:52:23.951Z,22.67
2022-11-15T06:54:50.350Z,25.73
2022-11-15T06:57:16.727Z,20.53
2022-11-15T06:59:43.097Z,16.70
2022-11-15T07:02:15.838Z,21.90
2022-11-15T07:04:42.549Z,17.87
2022-11-15T07:07:09.292Z,19.50
2022-11-15T07:09:35.756Z,17.70
2022-11-15T07:12:07.317Z,23.23
2022-11-15T07:14:34.180Z,19.03
2022-11-15T07:17:00.642Z,19.80
2022-11-15T07:19:27.069Z,22.77
2022-11-15T07:21:53.476Z,19.60
2022-11-15T07:24:19.896Z,22.17
2022-11-15T07:26:46.326Z,20.33
2022-11-15T07:29:12.810Z,20.67
2022-11-15T07:31:39.891Z,23.70
2022-11-15T07:34:06.266Z,20.03
2022-11-15T07:36:32.666Z,20.50
2022-11-15T07:38:59.162Z,24.60
2022-11-15T07:41:25.579Z,22.77
2022-11-15T07:43:52.700Z,20.00
2022-11-15T07:46:19.364Z,20.17
2022-11-15T07:48:45.977Z,19.93
2022-11-15T07:51:14.932Z,19.17
2022-11-15T07:53:42.458Z,22.33
2022-11-15T07:56:09.058Z,23.47
2022-11-15T07:58:35.520Z,20.47
2022-11-15T08:01:10.515Z,19.53
2022-11-15T08:03:37.730Z,22.00
2022-11-15T08:06:04.736Z,17.30
2022-11-15T08:08:31.141Z,21.67
2022-11-15T08:11:00.792Z,19.60
2022-11-15T08:13:27.451Z,19.07
2022-11-15T08:15:58.777Z,19.67
2022-11-15T08:18:25.153Z,15.70
2022-11-15T08:20:51.562Z,21.60
2022-11-15T08:23:17.942Z,20.63
2022-11-15T08:25:44.582Z,17.70
2022-11-15T08:28:11.473Z,17.87
2022-11-15T08:30:39.757Z,17.67
2022-11-15T08:33:06.182Z,20.10
2022-11-15T08:35:32.840Z,15.80
2022-11-15T08:37:59.259Z,16.43
2022-11-15T08:40:25.865Z,17.93
2022-11-15T08:42:52.245Z,19.67
2022-11-15T08:45:18.739Z,22.00
2022-11-15T08:47:48.552Z,17.00
2022-11-15T08:50:19.320Z,16.33
2022-11-15T08:52:45.695Z,18.63
2022-11-15T08:55:12.111Z,12.87
2022-11-15T08:57:38.510Z,16.70
2022-11-15T09:00:05.343Z,16.47
2022-11-15T09:02:31.703Z,14.97
2022-11-15T09:04:58.244Z,15.83
2022-11-15T09:07:25.985Z,13.07
2022-11-15T09:09:52.432Z,20.20
2022-11-15T09:12:18.825Z,19.20
2022-11-15T09:14:45.234Z,14.77
2022-11-15T09:17:11.666Z,14.83
2022-11-15T09:19:38.521Z,14.20
2022-11-15T09:22:08.872Z,13.00
2022-11-15T09:24:36.008Z,13.20
2022-11-15T09:27:02.408Z,18.77
2022-11-15T09:29:28.833Z,17.70
2022-11-15T09:31:55.286Z,15.73
2022-11-15T09:34:21.987Z,15.03
2022-11-15T09:36:48.399Z,16.43
2022-11-15T09:39:14.911Z,16.67
2022-11-15T09:42:03.684Z,17.00
2022-11-15T09:44:39.151Z,13.77
2022-11-15T09:47:31.919Z,18.20
2022-11-15T09:50:00.612Z,20.57
2022-11-15T09:52:27.179Z,15.93
2022-11-15T09:54:55.736Z,10.77
2022-11-15T09:57:32.403Z,11.37
2022-11-15T10:00:52.702Z,14.07
2022-11-15T10:03:28.182Z,12.03
2022-11-15T10:05:57.912Z,11.57
2022-11-15T10:08:48.290Z,14.00
2022-11-15T10:11:39.997Z,14.37
2022-11-15T10:14:23.328Z,12.43
2022-11-15T10:17:19.473Z,10.77
2022-11-15T10:20:43.282Z,14.87
2022-11-15T10:23:13.172Z,13.83
2022-11-15T10:25:39.946Z,10.60
2022-11-15T10:28:16.741Z,14.00
2022-11-15T10:30:46.755Z,12.40
2022-11-15T10:33:21.058Z,8.93
2022-11-15T10:35:47.498Z,13.93
2022-11-15T10:38:14.250Z,9.43
2022-11-15T10:40:42.505Z,12.27
2022-11-15T10:43:11.931Z,10.67
2022-11-15T10:45:39.286Z,19.57
2022-11-15T10:48:14.748Z,24.73
2022-11-15T10:50:43.020Z,11.40
2022-11-15T10:53:20.382Z,10.27
2022-11-15T10:55:52.647Z,9.30
2022-11-15T10:58:38.484Z,12.27
2022-11-15T11:01:13.187Z,7.80
2022-11-15T11:03:41.229Z,11.50
2022-11-15T11:06:14.094Z,11.20
2022-11-15T11:08:41.421Z,10.73
2022-11-15T11:11:08.756Z,9.37
2022-11-15T11:13:38.049Z,8.33
2022-11-15T11:16:27.377Z,9.43
2022-11-15T11:19:05.938Z,8.10
2022-11-15T11:21:57.277Z,6.87
2022-11-15T11:25:02.118Z,9.17
2022-11-15T11:28:05.507Z,6.97
2022-11-15T11:31:00.113Z,6.13
2022-11-15T11:33:32.336Z,9.63
2022-11-15T11:36:36.176Z,8.67
2022-11-15T11:39:33.542Z,7.37
2022-11-15T11:42:05.946Z,7.83
2022-11-15T11:44:59.560Z,5.80
2022-11-15T11:47:34.637Z,8.63
2022-11-15T11:50:11.198Z,7.67
2022-11-15T11:52:44.622Z,5.63
2022-11-15T11:55:24.644Z,12.07
2022-11-15T11:58:09.742Z,6.93
2022-11-15T12:00:41.895Z,9.40
2022-11-15T12:03:22.417Z,6.37
2022-11-15T12:06:14.576Z,6.60
2022-11-15T12:08:54.460Z,6.00
2022-11-15T12:12:14.236Z,6.70
2022-11-15T12:14:59.974Z,7.80
2022-11-15T12:17:33.431Z,5.40
2022-11-15T12:20:05.979Z,7.27
2022-11-15T12:22:48.996Z,4.57
2022-11-15T12:25:20.014Z,4.67
2022-11-15T12:27:51.813Z,5.47
2022-11-15T12:30:20.735Z,5.67
2022-11-15T12:32:54.122Z,6.37
2022-11-15T12:35:39.731Z,8.03
2022-11-15T12:38:10.912Z,4.60
2022-11-15T12:41:16.055Z,4.23
2022-11-15T12:43:43.835Z,4.80
2022-11-15T12:46:34.100Z,5.53
2022-11-15T12:49:02.569Z,2.93
2022-11-15T12:51:44.528Z,6.80
2022-11-15T12:54:22.982Z,3.50
2022-11-15T12:57:04.625Z,7.57
2022-11-15T12:59:49.868Z,4.47
2022-11-15T13:02:27.191Z,5.57
2022-11-15T13:04:56.204Z,3.73
2022-11-15T13:07:40.969Z,4.60
2022-11-15T13:10:28.313Z,4.03
2022-11-15T13:13:43.363Z,4.57
2022-11-15T13:16:09.836Z,6.87
2022-11-15T13:18:39.042Z,4.70
2022-11-15T13:21:38.992Z,6.60
2022-11-15T13:24:05.950Z,4.27
2022-11-15T13:26:32.614Z,4.70
2022-11-15T13:29:00.435Z,4.13
2022-11-15T13:31:41.560Z,3.23
2022-11-15T13:34:44.040Z,3.93
2022-11-15T13:37:04.166Z,3.17
2022-11-15T13:39:31.974Z,1.73
2022-11-15T13:41:59.105Z,2.80
2022-11-15T13:44:32.068Z,4.97
2022-11-15T13:47:20.265Z,2.53
2022-11-15T13:49:46.942Z,2.97
2022-11-15T13:52:17.921Z,3.10
2022-11-15T13:54:52.905Z,3.37
2022-11-15T13:57:28.805Z,2.43
2022-11-15T13:59:56.131Z,2.53
2022-11-15T14:02:27.876Z,3.93
2022-11-15T14:04:56.803Z,3.10
2022-11-15T14:07:25.787Z,4.00
2022-11-15T14:09:52.660Z,2.40
2022-11-15T14:12:27.055Z,1.97
2022-11-15T14:14:53.787Z,4.00
2022-11-15T14:17:30.553Z,2.17
2022-11-15T14:19:58.125Z,4.03
2022-11-15T14:22:27.026Z,1.73
2022-11-15T14:25:08.856Z,2.90
2022-11-15T14:27:35.652Z,3.03
2022-11-15T14:30:02.322Z,3.17
2022-11-15T14:32:30.623Z,1.63
2022-11-15T14:34:58.085Z,2.23
2022-11-15T14:37:35.708Z,2.37
2022-11-15T14:40:04.136Z,2.53
2022-11-15T14:42:30.581Z,3.50
2022-11-15T14:44:58.393Z,4.70
2022-11-15T14:47:26.156Z,2.93
2022-11-15T14:49:53.607Z,3.53
2022-11-15T14:52:38.042Z,4.53
2022-11-15T14:55:18.468Z,3.00
2022-11-15T14:57:46.066Z,3.90
2022-11-15T15:00:16.205Z,4.07
2022-11-15T15:02:44.787Z,7.27
2022-11-15T15:05:20.139Z,3.67
2022-11-15T15:07:47.237Z,1.67
2022-11-15T15:10:38.865Z,3.97
2022-11-15T15:13:01.721Z,4.03
2022-11-15T15:15:34.137Z,5.70
2022-11-15T15:18:00.873Z,3.60
2022-11-15T15:20:28.247Z,2.33
2022-11-15T15:22:54.668Z,3.03
2022-11-15T15:25:28.562Z,3.13
2022-11-15T15:27:56.006Z,4.77
2022-11-15T15:30:27.241Z,4.67
2022-11-15T15:32:54.893Z,3.23
2022-11-15T15:35:21.771Z,5.47
2022-11-15T15:37:49.467Z,5.30
2022-11-15T15:40:25.766Z,5.50
2022-11-15T15:42:52.301Z,4.63
2022-11-15T15:45:19.839Z,4.70
2022-11-15T15:47:47.040Z,5.30
2022-11-15T15:50:29.748Z,7.17
2022-11-15T15:52:57.937Z,6.77
2022-11-15T15:55:25.051Z,6.27
2022-11-15T15:57:51.607Z,8.30
2022-11-15T16:00:18.944Z,14.73
2022-11-15T16:02:45.976Z,9.23
2022-11-15T16:05:14.259Z,9.20
2022-11-15T16:07:41.478Z,9.73
2022-11-15T16:10:28.576Z,8.37
2022-11-15T16:12:56.661Z,8.93
2022-11-15T16:15:25.181Z,7.70
2022-11-15T16:17:59.792Z,5.63
2022-11-15T16:20:40.358Z,6.97
2022-11-15T16:23:09.707Z,8.33
2022-11-15T16:25:41.687Z,12.10
2022-11-15T16:28:32.027Z,11.93
2022-11-15T16:31:04.326Z,6.97
2022-11-15T16:33:31.388Z,7.60
2022-11-15T16:35:58.135Z,6.57
2022-11-15T16:38:24.818Z,6.47
2022-11-15T16:40:51.210Z,6.03
2022-11-15T16:43:17.800Z,8.13
2022-11-15T16:45:44.389Z,9.87
2022-11-15T16:48:25.111Z,7.30
2022-11-15T16:50:57.326Z,6.90
2022-11-15T16:53:24.898Z,9.73
2022-11-15T16:55:51.345Z,8.10
2022-11-15T16:58:17.822Z,5.57
2022-11-15T17:00:44.349Z,8.73
2022-11-15T17:03:10.904Z,7.93
2022-11-15T17:05:37.413Z,7.53
2022-11-15T17:08:03.807Z,8.83
2022-11-15T17:10:30.225Z,7.07
2022-11-15T17:12:56.648Z,6.17
2022-11-15T17:15:24.448Z,5.83
2022-11-15T17:17:54.815Z,7.67
2022-11-15T17:20:23.904Z,6.43
2022-11-15T17:22:50.849Z,6.47
2022-11-15T17:25:17.396Z,7.23
2022-11-15T17:27:43.824Z,6.10
2022-11-15T17:30:12.643Z,10.07
2022-11-15T17:32:39.115Z,8.47
2022-11-15T17:35:13.859Z,8.80
2022-11-15T17:37:42.195Z,7.07
2022-11-15T17:40:09.066Z,6.23
2022-11-15T17:42:35.550Z,9.53
2022-11-15T17:47:29.636Z,9.13
2022-11-15T17:49:56.047Z,9.43
2022-11-15T17:52:22.501Z,9.17
2022-11-15T17:54:48.862Z,24.70
2022-11-15T17:57:15.342Z,8.77
2022-11-15T17:59:41.807Z,8.20
2022-11-15T18:02:09.599Z,6.87
2022-11-15T18:04:35.999Z,6.30
2022-11-15T18:07:02.415Z,11.07
2022-11-15T18:09:28.924Z,10.43
2022-11-15T18:11:55.333Z,6.47
2022-11-15T18:14:21.797Z,9.63
2022-11-15T18:16:48.231Z,11.83
2022-11-15T18:19:15.150Z,8.37
2022-11-15T18:22:04.309Z,8.33
2022-11-15T18:24:30.732Z,10.20
2022-11-15T18:26:58.240Z,22.47
2022-11-15T18:29:24.945Z,14.17
2022-11-15T18:31:55.484Z,10.60
2022-11-15T18:34:23.465Z,9.53
2022-11-15T18:36:51.610Z,7.90
2022-11-15T18:39:18.574Z,7.37
2022-11-15T18:41:46.502Z,11.27
2022-11-15T18:44:15.643Z,8.23
2022-11-15T18:46:42.727Z,13.83
2022-11-15T18:49:12.643Z,16.63
2022-11-15T18:51:41.915Z,12.80
2022-11-15T18:54:13.352Z,13.17
2022-11-15T18:56:40.247Z,8.67
2022-11-15T18:59:08.301Z,6.97
2022-11-15T19:01:37.093Z,7.40
2022-11-15T19:04:08.268Z,8.23
2022-11-15T19:06:38.927Z,7.90
2022-11-15T19:09:06.167Z,10.40
2022-11-15T19:11:35.714Z,27.80
2022-11-15T19:14:04.574Z,71.30
2022-11-15T19:16:33.503Z,10.37
2022-11-15T19:19:02.242Z,8.70
2022-11-15T19:21:30.928Z,7.97
2022-11-15T19:23:58.026Z,7.83
2022-11-15T19:26:25.062Z,8.53
2022-11-15T19:28:56.295Z,6.43
2022-11-15T19:31:26.242Z,11.23
2022-11-15T19:33:53.574Z,12.80
2022-11-15T19:36:23.181Z,12.63
2022-11-15T19:38:49.856Z,10.50
2022-11-15T19:41:18.508Z,12.67
2022-11-15T19:43:47.924Z,13.57
2022-11-15T19:46:14.937Z,25.47
2022-11-15T19:48:41.712Z,15.80
2022-11-15T19:51:16.196Z,12.63
2022-11-15T19:53:43.270Z,13.80
2022-11-15T19:56:14.639Z,9.73
2022-11-15T19:58:41.416Z,10.43
2022-11-15T20:01:12.844Z,10.30
2022-11-15T20:03:39.393Z,8.97
2022-11-15T20:06:08.155Z,10.03
2022-11-15T20:08:35.205Z,14.37
2022-11-15T20:11:02.920Z,8.43
2022-11-15T20:13:29.426Z,8.77
2022-11-15T20:15:56.551Z,8.00
2022-11-15T20:18:24.078Z,11.30
2022-11-15T20:20:50.736Z,8.30
2022-11-15T20:23:17.510Z,11.40
2022-11-15T20:25:46.039Z,10.60
2022-11-15T20:28:21.023Z,10.60
2022-11-15T20:30:48.350Z,8.53
2022-11-15T20:33:14.970Z,7.50
2022-11-15T20:35:41.468Z,10.37
2022-11-15T20:38:08.195Z,9.37
2022-11-15T20:40:34.973Z,10.57
2022-11-15T20:43:01.383Z,9.03
2022-11-15T20:45:27.790Z,9.30
2022-11-15T20:47:58.285Z,9.97
2022-11-15T20:50:42.157Z,8.37
2022-11-15T20:53:11.192Z,9.63
2022-11-15T20:55:47.686Z,7.20
2022-11-15T20:58:15.262Z,9.30
2022-11-15T21:00:43.199Z,10.80
2022-11-15T21:03:09.843Z,10.63
2022-11-15T21:05:40.791Z,8.97
2022-11-15T21:08:07.728Z,10.33
2022-11-15T21:10:52.831Z,8.67
2022-11-15T21:13:19.347Z,7.47
2022-11-15T21:15:45.991Z,10.57
2022-11-15T21:18:12.962Z,9.63
2022-11-15T21:20:39.514Z,10.67
2022-11-15T21:23:05.962Z,11.07
2022-11-15T21:25:35.733Z,10.07
2022-11-15T21:28:02.840Z,11.53
2022-11-15T21:30:29.264Z,9.87
2022-11-15T21:32:55.821Z,6.63
2022-11-15T21:35:22.633Z,9.17
2022-11-15T21:37:54.961Z,10.17
2022-11-15T21:40:23.054Z,9.00
2022-11-15T21:42:49.485Z,12.13
2022-11-15T21:45:15.930Z,8.23
2022-11-15T21:47:46.037Z,8.47
2022-11-15T21:50:13.397Z,12.40
2022-11-15T21:52:40.887Z,11.63
2022-11-15T21:55:08.145Z,10.43
2022-11-15T21:57:34.552Z,10.13
2022-11-15T22:00:27.231Z,8.87
2022-11-15T22:02:53.667Z,9.80
2022-11-15T22:05:20.355Z,10.43
2022-11-15T22:07:46.776Z,9.43
2022-11-15T22:10:13.232Z,14.17
2022-11-15T22:12:40.004Z,7.33
2022-11-15T22:15:07.045Z,8.87
2022-11-15T22:17:52.118Z,8.47
2022-11-15T22:23:05.636Z,7.97
2022-11-15T22:25:32.512Z,9.77
2022-11-15T22:27:58.927Z,11.00
2022-11-15T22:30:25.349Z,10.10
2022-11-15T22:32:51.788Z,9.27
2022-11-15T22:35:18.383Z,9.33
2022-11-15T22:37:44.789Z,9.67
2022-11-15T22:40:11.275Z,10.60
2022-11-15T22:42:37.963Z,8.13
2022-11-15T22:45:04.787Z,8.83
2022-11-15T22:47:31.438Z,7.27
2022-11-15T22:49:57.907Z,8.33
2022-11-15T22:52:24.532Z,6.30
2022-11-15T22:54:51.206Z,9.63
2022-11-15T22:57:17.838Z,12.47
2022-11-15T22:59:44.355Z,8.30
2022-11-15T23:02:10.744Z,8.23
2022-11-15T23:04:37.481Z,9.67
2022-11-15T23:07:04.164Z,7.67
2022-11-15T23:09:30.638Z,7.20
2022-11-15T23:12:15.659Z,10.33
2022-11-15T23:14:42.104Z,11.10
2022-11-15T23:17:08.499Z,7.67
2022-11-15T23:19:35.058Z,8.90
2022-11-15T23:22:20.003Z,11.43
2022-11-15T23:24:46.468Z,7.73
2022-11-15T23:27:15.559Z,10.17
2022-11-15T23:30:13.993Z,7.70
2022-11-15T23:32:59.137Z,8.10
2022-11-15T23:35:26.041Z,9.93
2022-11-15T23:37:52.458Z,7.90
2022-11-15T23:40:19.221Z,8.53
2022-11-15T23:42:45.627Z,6.90
2022-11-15T23:45:12.102Z,14.03
2022-11-15T23:47:38.508Z,8.40
2022-11-15T23:50:05.250Z,9.50
2022-11-15T23:52:31.822Z,7.73
2022-11-15T23:54:58.285Z,6.70
2022-11-15T23:57:24.716Z,7.50
2022-11-15T23:59:51.181Z,6.70
